Time;durP1;ratioP1;P1;durP2;ratioP2;P2;SDS_P1;SDS_P2;PMS_P1;PMS_P2;Temp;Humidity;BMP_temperature;BMP_pressure;BME280_temperature;BME280_humidity;BME280_pressure;Samples;Min_cycle;Max_cycle;Signal;HPM_P1;HPM_P2
2021/03/19 00:01:47;;;;;;;15.00;11.73;;;-2.60;99.90;;;;;;5036798;28;20415;-96
2021/03/19 00:04:14;;;;;;;14.17;10.60;;;-2.70;99.90;;;;;;5020601;28;20430;-95
2021/03/19 00:06:41;;;;;;;16.08;11.30;;;-2.70;99.90;;;;;;5020621;28;20427;-95
2021/03/19 00:09:10;;;;;;;15.90;11.10;;;-2.70;99.90;;;;;;5020012;28;20455;-95
2021/03/19 00:11:38;;;;;;;17.02;12.40;;;-2.80;99.90;;;;;;5019915;28;20426;-94
2021/03/19 00:14:07;;;;;;;17.48;12.88;;;-2.90;99.90;;;;;;5036488;28;20514;-95
2021/03/19 00:16:34;;;;;;;19.33;13.90;;;-2.90;99.90;;;;;;5036760;28;20473;-96
2021/03/19 00:19:10;;;;;;;20.20;14.02;;;-2.90;99.90;;;;;;5036259;28;20992;-95
2021/03/19 00:21:38;;;;;;;21.92;14.68;;;-3.10;99.90;;;;;;5036041;28;20427;-95
2021/03/19 00:24:06;;;;;;;21.10;14.73;;;-2.90;99.90;;;;;;5036150;28;20449;-94
2021/03/19 00:26:33;;;;;;;26.08;15.95;;;-3.00;99.90;;;;;;5035721;28;20926;-94
2021/03/19 00:29:00;;;;;;;25.42;16.52;;;-3.00;99.90;;;;;;5019477;28;20451;-95
2021/03/19 00:31:27;;;;;;;19.47;14.07;;;-3.10;99.90;;;;;;5035860;28;20423;-95
2021/03/19 00:33:54;;;;;;;18.55;12.32;;;-3.10;99.90;;;;;;5035887;28;20427;-95
2021/03/19 00:36:20;;;;;;;21.58;13.75;;;-3.00;99.90;;;;;;5019061;28;20842;-95
2021/03/19 00:38:47;;;;;;;19.27;14.10;;;-3.00;99.90;;;;;;5035405;28;20419;-95
2021/03/19 00:41:14;;;;;;;20.52;14.55;;;-3.00;99.90;;;;;;5035825;28;20464;-94
2021/03/19 00:43:40;;;;;;;22.75;13.55;;;-3.10;99.90;;;;;;5035103;28;20449;-94
2021/03/19 00:46:07;;;;;;;18.98;13.10;;;-3.10;99.90;;;;;;5018795;28;20415;-96
2021/03/19 00:48:34;;;;;;;17.35;12.77;;;-3.10;99.90;;;;;;5036455;28;20429;-94
2021/03/19 00:51:01;;;;;;;16.85;12.30;;;-2.90;99.90;;;;;;5018338;28;20747;-95
2021/03/19 00:53:28;;;;;;;17.73;13.07;;;-3.00;99.90;;;;;;5018939;28;20454;-95
2021/03/19 00:55:56;;;;;;;19.23;13.55;;;-3.00;99.90;;;;;;5035665;28;20531;-95
2021/03/19 00:58:23;;;;;;;20.67;14.32;;;-3.00;99.90;;;;;;5035051;28;20839;-95
2021/03/19 01:00:49;;;;;;;25.20;14.32;;;-3.10;99.90;;;;;;5034573;28;20490;-96
2021/03/19 01:03:17;;;;;;;20.27;13.73;;;-3.10;99.90;;;;;;5018772;28;20513;-95
2021/03/19 01:05:46;;;;;;;23.55;14.32;;;-3.10;99.90;;;;;;5018567;28;20530;-95
2021/03/19 01:08:14;;;;;;;20.65;13.98;;;-3.10;99.90;;;;;;5034934;28;20449;-96
2021/03/19 01:10:52;;;;;;;22.20;14.30;;;-3.10;99.90;;;;;;5019070;28;20419;-95
2021/03/19 01:13:19;;;;;;;19.85;14.05;;;-3.00;99.90;;;;;;5035929;28;20515;-96
2021/03/19 01:15:46;;;;;;;20.60;14.10;;;-3.00;99.90;;;;;;5035664;28;20454;-96
2021/03/19 01:18:17;;;;;;;21.35;13.27;;;-2.90;99.90;;;;;;5038272;28;20423;-95
2021/03/19 01:20:45;;;;;;;21.03;13.80;;;-3.00;99.90;;;;;;5040801;28;20418;-96
2021/03/19 01:23:14;;;;;;;21.92;13.80;;;-2.90;99.90;;;;;;5038943;28;20519;-94
2021/03/19 01:25:42;;;;;;;21.00;13.95;;;-2.90;99.90;;;;;;5035936;28;20914;-95
2021/03/19 01:28:08;;;;;;;20.40;13.80;;;-2.80;99.90;;;;;;5036622;28;20995;-96
2021/03/19 01:30:38;;;;;;;21.88;14.90;;;-2.80;99.90;;;;;;5018232;28;20429;-96
2021/03/19 01:33:06;;;;;;;23.60;15.30;;;-2.80;99.90;;;;;;5035102;28;20430;-94
2021/03/19 01:35:35;;;;;;;23.55;15.90;;;-2.80;99.90;;;;;;5034322;28;20787;-95
2021/03/19 01:38:03;;;;;;;19.90;13.85;;;-2.90;99.90;;;;;;5034062;28;20443;-96
2021/03/19 01:40:35;;;;;;;22.52;13.98;;;-2.80;99.90;;;;;;5017667;28;20423;-95
2021/03/19 01:43:23;;;;;;;22.48;14.38;;;-2.80;99.90;;;;;;5034212;28;20445;-94
2021/03/19 01:46:32;;;;;;;21.58;14.80;;;-2.80;99.90;;;;;;5018001;28;20784;-96
2021/03/19 01:49:37;;;;;;;24.85;16.13;;;-2.70;99.90;;;;;;5034787;28;20430;-96
2021/03/19 01:52:42;;;;;;;21.55;13.57;;;-2.80;99.90;;;;;;5020301;28;20499;-96
2021/03/19 01:55:46;;;;;;;19.75;13.63;;;-2.80;99.90;;;;;;5035953;28;20427;-95
2021/03/19 01:58:50;;;;;;;25.88;14.10;;;-2.80;99.90;;;;;;5034658;28;20419;-96
2021/03/19 02:01:54;;;;;;;23.60;16.23;;;-2.70;99.90;;;;;;5034894;28;20419;-96
2021/03/19 02:04:58;;;;;;;22.17;15.18;;;-2.70;99.90;;;;;;5035742;28;20449;-96
2021/03/19 02:08:03;;;;;;;23.40;16.02;;;-2.70;99.90;;;;;;5019613;28;20927;-96
2021/03/19 02:11:07;;;;;;;22.80;16.10;;;-2.70;99.90;;;;;;5036831;28;20434;-96
2021/03/19 02:14:11;;;;;;;23.10;16.17;;;-2.70;99.90;;;;;;5020766;28;20422;-95
2021/03/19 02:17:15;;;;;;;22.30;15.40;;;-2.70;99.90;;;;;;5020895;28;20500;-96
2021/03/19 02:20:20;;;;;;;22.20;14.27;;;-2.60;99.90;;;;;;5021034;28;20498;-96
2021/03/19 02:23:25;;;;;;;23.10;15.63;;;-2.60;99.90;;;;;;5034870;28;20443;-95
2021/03/19 02:26:29;;;;;;;23.63;16.48;;;-2.60;99.90;;;;;;5035805;28;20488;-95
2021/03/19 02:29:34;;;;;;;19.98;14.52;;;-2.60;99.90;;;;;;5019938;28;20431;-96
2021/03/19 02:32:17;;;;;;;23.17;15.88;;;-2.50;99.90;;;;;;5035434;28;20902;-96
2021/03/19 02:34:53;;;;;;;22.45;15.65;;;-2.50;99.90;;;;;;5034360;28;20419;-94
2021/03/19 02:37:23;;;;;;;21.63;15.07;;;-2.50;99.90;;;;;;5033867;28;20445;-96
2021/03/19 02:39:50;;;;;;;22.85;15.85;;;-2.50;99.90;;;;;;5033282;28;20427;-96
2021/03/19 02:42:20;;;;;;;22.25;15.82;;;-2.40;99.90;;;;;;5017489;28;20430;-96
2021/03/19 02:44:48;;;;;;;21.35;15.55;;;-2.40;99.90;;;;;;5033559;28;22207;-94
2021/03/19 02:47:15;;;;;;;23.77;15.63;;;-2.50;99.90;;;;;;5033977;28;20450;-96
2021/03/19 02:49:42;;;;;;;22.85;15.35;;;-2.50;99.90;;;;;;5034597;28;20455;-96
2021/03/19 02:52:22;;;;;;;25.50;17.17;;;-2.50;99.90;;;;;;5018415;28;20423;-96
2021/03/19 02:54:50;;;;;;;24.70;16.15;;;-2.50;99.90;;;;;;5018168;28;20457;-94
2021/03/19 02:57:18;;;;;;;24.75;16.15;;;-2.50;99.90;;;;;;5034619;28;20426;-96
2021/03/19 02:59:45;;;;;;;24.77;16.60;;;-2.50;99.90;;;;;;5018196;28;20918;-96
2021/03/19 03:02:11;;;;;;;24.75;17.38;;;-2.60;99.90;;;;;;5035374;28;20434;-95
2021/03/19 03:04:39;;;;;;;27.05;17.80;;;-2.70;99.90;;;;;;5017402;28;20886;-96
2021/03/19 03:07:05;;;;;;;30.00;19.67;;;-2.60;99.90;;;;;;5016881;28;20438;-94
2021/03/19 03:09:34;;;;;;;29.75;19.13;;;-2.60;99.90;;;;;;5036211;28;20423;-96
2021/03/19 03:12:03;;;;;;;33.70;21.77;;;-2.70;99.90;;;;;;5035096;28;20423;-95
2021/03/19 03:14:30;;;;;;;32.43;19.70;;;-2.80;99.90;;;;;;5016419;28;20862;-95
2021/03/19 03:17:00;;;;;;;31.20;18.75;;;-2.60;99.90;;;;;;5032493;28;20802;-95
2021/03/19 03:19:28;;;;;;;30.20;18.75;;;-2.70;99.90;;;;;;5032164;28;20423;-96
2021/03/19 03:21:56;;;;;;;32.92;20.33;;;-2.70;99.90;;;;;;5032420;28;20489;-95
2021/03/19 03:24:24;;;;;;;36.83;21.50;;;-2.70;99.90;;;;;;5016879;28;20510;-95
2021/03/19 03:26:51;;;;;;;34.47;20.50;;;-2.70;99.90;;;;;;5032852;28;20419;-94
2021/03/19 03:29:20;;;;;;;31.80;20.02;;;-2.70;99.90;;;;;;5016224;28;20429;-95
2021/03/19 03:31:48;;;;;;;39.03;23.08;;;-2.70;99.90;;;;;;5016175;28;20482;-95
2021/03/19 03:34:15;;;;;;;36.92;21.75;;;-2.60;99.90;;;;;;5018026;28;20504;-95
2021/03/19 03:36:42;;;;;;;33.03;20.27;;;-2.70;99.90;;;;;;5020064;28;20427;-96
2021/03/19 03:39:14;;;;;;;29.23;18.77;;;-2.60;99.90;;;;;;5037352;28;20423;-96
2021/03/19 03:41:42;;;;;;;30.77;19.25;;;-2.60;99.90;;;;;;5037078;28;20479;-96
2021/03/19 03:44:13;;;;;;;30.02;19.48;;;-2.70;99.90;;;;;;5037052;28;20977;-96
2021/03/19 03:46:41;;;;;;;32.75;20.70;;;-2.60;99.90;;;;;;5036314;28;20910;-95
2021/03/19 03:49:08;;;;;;;28.23;18.63;;;-2.70;99.90;;;;;;5020480;28;20485;-96
2021/03/19 03:51:35;;;;;;;27.92;18.10;;;-2.70;99.90;;;;;;5035936;28;20422;-95
2021/03/19 03:54:02;;;;;;;26.88;16.65;;;-2.60;99.90;;;;;;5036260;28;20439;-95
2021/03/19 03:56:29;;;;;;;27.52;16.90;;;-2.60;99.90;;;;;;5036420;28;20423;-94
2021/03/19 03:58:56;;;;;;;29.13;18.13;;;-2.60;99.90;;;;;;5036006;28;20429;-96
2021/03/19 04:01:24;;;;;;;30.73;18.70;;;-2.60;99.90;;;;;;5037296;28;20751;-96
2021/03/19 04:03:51;;;;;;;30.63;20.42;;;-2.70;99.90;;;;;;5036977;28;20434;-94
2021/03/19 04:06:18;;;;;;;28.88;19.23;;;-2.60;99.90;;;;;;5036821;28;20419;-96
2021/03/19 04:08:45;;;;;;;31.03;19.97;;;-2.50;99.90;;;;;;5038010;28;21002;-95
2021/03/19 04:11:16;;;;;;;32.45;19.60;;;-2.60;99.90;;;;;;5037299;28;20423;-96
2021/03/19 04:13:42;;;;;;;31.67;20.00;;;-2.70;99.90;;;;;;5036694;28;20423;-96
2021/03/19 04:16:11;;;;;;;30.57;19.90;;;-2.60;99.90;;;;;;5020238;28;20435;-95
2021/03/19 04:18:38;;;;;;;30.35;19.10;;;-2.70;99.90;;;;;;5037183;28;20456;-96
2021/03/19 04:21:08;;;;;;;31.77;19.75;;;-2.60;99.90;;;;;;5020768;28;20426;-96
2021/03/19 04:23:38;;;;;;;27.98;18.60;;;-2.60;99.90;;;;;;5027823;28;20439;-96
2021/03/19 04:26:11;;;;;;;30.30;18.08;;;-2.70;99.90;;;;;;5041892;28;20426;-96
2021/03/19 04:28:39;;;;;;;30.50;17.08;;;-2.80;99.90;;;;;;5023850;28;20916;-96
2021/03/19 04:31:06;;;;;;;27.35;16.05;;;-2.80;99.90;;;;;;5039366;28;20419;-96
2021/03/19 04:33:33;;;;;;;26.25;17.35;;;-2.80;99.90;;;;;;5035583;28;20486;-96
2021/03/19 04:36:00;;;;;;;22.35;12.45;;;-2.80;99.90;;;;;;5019678;28;20919;-96
2021/03/19 04:38:28;;;;;;;24.55;14.73;;;-2.80;99.90;;;;;;5019731;28;20429;-96
2021/03/19 04:40:54;;;;;;;26.10;16.38;;;-2.80;99.90;;;;;;5036096;28;20506;-95
2021/03/19 04:43:21;;;;;;;28.43;17.33;;;-2.80;99.90;;;;;;5036283;28;20934;-95
2021/03/19 04:45:48;;;;;;;27.75;17.35;;;-2.80;99.90;;;;;;5039796;28;20415;-96
2021/03/19 04:48:15;;;;;;;27.90;18.10;;;-2.80;99.90;;;;;;5022375;28;20425;-96
2021/03/19 04:50:43;;;;;;;27.60;17.42;;;-2.70;99.90;;;;;;5020307;28;20481;-96
2021/03/19 04:53:10;;;;;;;29.58;17.25;;;-2.60;99.90;;;;;;5036890;28;20423;-95
2021/03/19 04:55:36;;;;;;;27.00;17.23;;;-2.60;99.90;;;;;;5040641;28;20427;-96
2021/03/19 04:58:03;;;;;;;28.08;18.00;;;-2.60;99.90;;;;;;5025279;28;20419;-96
2021/03/19 05:00:31;;;;;;;25.55;17.75;;;-2.60;99.90;;;;;;5047454;28;20419;-96
2021/03/19 05:02:59;;;;;;;29.23;18.52;;;-2.60;99.90;;;;;;5023667;28;20434;-96
2021/03/19 05:05:29;;;;;;;27.45;17.50;;;-2.60;99.90;;;;;;5038526;28;20434;-95
2021/03/19 05:07:57;;;;;;;27.88;18.38;;;-2.40;99.90;;;;;;5034854;28;20423;-96
2021/03/19 05:10:27;;;;;;;30.05;18.88;;;-2.50;99.90;;;;;;5018853;28;20419;-96
2021/03/19 05:12:56;;;;;;;29.27;18.88;;;-2.50;99.90;;;;;;5034946;28;20511;-95
2021/03/19 05:15:25;;;;;;;27.67;18.80;;;-2.50;99.90;;;;;;5035565;28;20423;-95
2021/03/19 05:17:51;;;;;;;30.38;19.42;;;-2.40;99.90;;;;;;5037235;28;20433;-95
2021/03/19 05:20:22;;;;;;;28.55;18.45;;;-2.60;99.90;;;;;;5021142;28;20426;-96
2021/03/19 05:22:50;;;;;;;32.75;20.17;;;-2.40;99.90;;;;;;5035121;28;20426;-95
2021/03/19 05:25:22;;;;;;;28.58;18.95;;;-2.40;99.90;;;;;;5036642;28;20478;-95
2021/03/19 05:27:50;;;;;;;32.83;19.75;;;-2.40;99.90;;;;;;5036285;28;20443;-96
2021/03/19 05:30:18;;;;;;;30.48;20.23;;;-2.30;99.90;;;;;;5035034;28;20433;-96
2021/03/19 05:32:44;;;;;;;32.95;20.85;;;-2.30;99.90;;;;;;5034533;28;20506;-95
2021/03/19 05:35:13;;;;;;;33.15;21.40;;;-2.30;99.90;;;;;;5018960;28;20511;-96
2021/03/19 05:37:40;;;;;;;34.50;22.42;;;-2.10;99.90;;;;;;5035090;28;20502;-96
2021/03/19 05:40:11;;;;;;;32.30;20.75;;;-2.10;99.90;;;;;;5021496;28;20508;-96
2021/03/19 05:42:40;;;;;;;35.10;22.10;;;-2.10;99.90;;;;;;5036311;28;20518;-96
2021/03/19 05:45:14;;;;;;;39.85;24.73;;;-2.10;99.90;;;;;;5042003;28;20426;-95
2021/03/19 05:47:42;;;;;;;40.53;25.23;;;-2.10;99.90;;;;;;5021752;28;20502;-94
2021/03/19 05:50:27;;;;;;;50.17;28.02;;;-2.10;99.90;;;;;;5038905;28;20763;-96
2021/03/19 05:52:55;;;;;;;57.13;30.77;;;-2.20;99.90;;;;;;5040101;28;20915;-96
2021/03/19 05:55:25;;;;;;;60.93;31.70;;;-2.30;99.90;;;;;;5016542;28;20506;-94
2021/03/19 05:57:58;;;;;;;77.50;32.22;;;-2.30;99.90;;;;;;5032874;28;20973;-94
2021/03/19 06:00:27;;;;;;;193.48;40.42;;;-2.30;99.90;;;;;;5033339;28;20486;-95
2021/03/19 06:02:54;;;;;;;119.32;37.28;;;-2.30;99.90;;;;;;5033632;28;20441;-94
2021/03/19 06:05:29;;;;;;;402.80;47.27;;;-2.30;99.90;;;;;;5033300;28;20439;-94
2021/03/19 06:07:56;;;;;;;163.75;42.17;;;-2.30;99.90;;;;;;5037547;28;20478;-96
2021/03/19 06:10:40;;;;;;;1204.88;78.30;;;-2.30;99.90;;;;;;5037416;28;20506;-96
2021/03/19 06:13:23;;;;;;;900.50;65.40;;;-2.20;99.90;;;;;;5041826;28;20454;-96
2021/03/19 06:16:27;;;;;;;222.60;47.07;;;-2.20;99.90;;;;;;5046351;28;20443;-96
2021/03/19 06:18:57;;;;;;;94.93;42.10;;;-2.20;99.90;;;;;;5043243;28;20481;-95
2021/03/19 06:21:37;;;;;;;121.23;41.03;;;-2.10;99.90;;;;;;5045934;28;20451;-96
2021/03/19 06:24:24;;;;;;;74.43;37.63;;;-1.80;99.90;;;;;;5045862;28;20468;-96
2021/03/19 06:27:10;;;;;;;64.10;35.13;;;-1.70;99.90;;;;;;5039438;28;20499;-96
2021/03/19 06:29:47;;;;;;;179.60;40.47;;;-1.60;99.90;;;;;;5028500;28;20514;-96
2021/03/19 06:32:29;;;;;;;85.13;40.50;;;-1.70;99.90;;;;;;5040988;28;20490;-96
2021/03/19 06:35:31;;;;;;;118.45;38.30;;;-1.80;99.90;;;;;;5046570;28;20479;-96
2021/03/19 06:38:26;;;;;;;179.35;41.13;;;-1.70;99.90;;;;;;5002874;28;20513;-96
2021/03/19 06:41:28;;;;;;;265.05;45.47;;;-1.80;99.90;;;;;;4987284;28;20422;-96
2021/03/19 06:44:27;;;;;;;1613.18;89.38;;;-1.80;99.90;;;;;;5005930;28;20498;-96
2021/03/19 06:47:07;;;;;;;99.47;42.35;;;-1.90;99.90;;;;;;5003282;28;20406;-95
2021/03/19 06:49:54;;;;;;;275.35;44.60;;;-2.00;99.90;;;;;;5002185;28;20485;-96
2021/03/19 06:52:32;;;;;;;83.22;40.13;;;-2.00;99.90;;;;;;4985244;28;20410;-96
2021/03/19 07:09:52;;;;;;;57.55;33.03;;;-1.70;99.90;;;;;;5687473;22;20530;-93
2021/03/19 07:12:58;;;;;;;56.47;32.87;;;-1.70;99.90;;;;;;5041494;28;20435;-91
2021/03/19 07:15:44;;;;;;;50.70;30.30;;;-1.60;99.90;;;;;;5049198;28;20436;-94
2021/03/19 07:18:29;;;;;;;53.30;31.55;;;-1.60;99.90;;;;;;5045707;28;20497;-94
2021/03/19 07:26:59;;;;;;;394.23;41.65;;;-1.30;99.90;;;;;;5785591;22;20522;-95
2021/03/19 08:40:55;;;;;;;30.30;20.45;;;0.20;99.90;;;;;;5153626;22;20427;-94
2021/03/19 08:43:29;;;;;;;31.13;20.50;;;0.30;99.90;;;;;;5027639;28;20772;-95
2021/03/19 08:46:15;;;;;;;31.55;21.00;;;0.60;99.90;;;;;;5021763;28;20423;-94
2021/03/19 08:48:57;;;;;;;27.80;18.52;;;0.80;99.90;;;;;;5022008;28;20423;-93
2021/03/19 08:51:51;;;;;;;26.48;18.70;;;0.90;99.90;;;;;;5022700;28;20423;-92
2021/03/19 08:54:30;;;;;;;29.92;20.60;;;0.80;99.90;;;;;;4928343;29;20435;-92
2021/03/19 08:57:03;;;;;;;29.43;18.17;;;0.80;99.90;;;;;;4927215;29;20491;-93
2021/03/19 08:59:48;;;;;;;28.33;19.45;;;0.80;99.90;;;;;;4928192;29;20487;-93
2021/03/19 09:02:33;;;;;;;30.08;19.58;;;0.80;99.90;;;;;;4926204;29;20427;-95
2021/03/19 09:05:25;;;;;;;27.55;19.58;;;1.00;99.90;;;;;;4941756;29;20427;-92
2021/03/19 09:08:24;;;;;;;25.20;18.38;;;1.10;99.90;;;;;;4943174;29;20527;-95
2021/03/19 09:10:54;;;;;;;26.58;16.83;;;1.10;99.90;;;;;;4933301;29;20442;-92
2021/03/19 09:13:34;;;;;;;28.02;19.38;;;0.80;99.90;;;;;;4942509;29;20428;-92
2021/03/19 09:16:46;;;;;;;24.70;17.60;;;1.10;99.90;;;;;;4931073;29;20412;-94
2021/03/19 09:20:01;;;;;;;24.40;17.40;;;1.40;99.90;;;;;;4929007;29;20431;-94
2021/03/19 09:22:45;;;;;;;26.13;17.27;;;1.60;99.90;;;;;;4864617;29;20442;-91
2021/03/19 09:25:16;;;;;;;23.48;16.02;;;1.80;99.90;;;;;;4867961;29;20450;-95
2021/03/19 09:28:02;;;;;;;26.45;17.80;;;2.20;99.20;;;;;;4851594;29;20441;-93
2021/03/19 09:30:49;;;;;;;29.08;18.88;;;2.40;98.90;;;;;;4869137;29;20425;-92
2021/03/19 09:34:05;;;;;;;31.88;20.27;;;2.50;98.90;;;;;;4943689;29;20494;-91
2021/03/19 09:37:26;;;;;;;26.63;17.55;;;2.40;99.80;;;;;;4903397;29;20526;-94
2021/03/19 09:40:52;;;;;;;24.58;17.40;;;2.40;98.80;;;;;;4905726;29;20449;-92
2021/03/19 09:43:50;;;;;;;23.02;16.67;;;1.60;99.90;;;;;;4923872;29;20540;-92
2021/03/19 09:46:33;;;;;;;26.92;18.88;;;1.30;99.80;;;;;;4923438;29;20433;-93
2021/03/19 09:49:26;;;;;;;21.33;15.45;;;1.10;99.90;;;;;;4925311;29;20429;-92
2021/03/19 09:52:36;;;;;;;21.38;15.65;;;0.80;99.90;;;;;;4911739;29;20631;-92
2021/03/19 09:55:20;;;;;;;29.63;20.30;;;0.40;99.90;;;;;;4924056;29;20425;-96
2021/03/19 09:57:50;;;;;;;25.25;18.45;;;0.60;99.90;;;;;;4913733;29;20429;-95
2021/03/19 10:00:27;;;;;;;26.60;19.02;;;0.70;99.90;;;;;;4963142;29;20865;-92
2021/03/19 10:03:15;;;;;;;25.98;18.38;;;0.70;99.90;;;;;;4947499;29;20602;-95
2021/03/19 10:05:48;;;;;;;29.63;20.25;;;0.50;99.90;;;;;;4961472;29;20461;-92
2021/03/19 10:08:28;;;;;;;31.63;21.33;;;0.20;99.90;;;;;;4984899;28;20438;-93
2021/03/19 10:11:13;;;;;;;36.67;24.20;;;0.00;99.90;;;;;;4999794;28;20433;-93
2021/03/19 10:13:48;;;;;;;26.73;17.38;;;-0.10;99.90;;;;;;4981621;28;20434;-95
2021/03/19 10:16:41;;;;;;;29.90;19.55;;;-0.10;99.90;;;;;;5000528;28;20450;-96
2021/03/19 10:19:25;;;;;;;25.13;17.65;;;-0.20;99.90;;;;;;4999789;28;20461;-93
2021/03/19 10:22:09;;;;;;;28.42;19.50;;;-0.10;99.90;;;;;;4987338;28;20406;-93
2021/03/19 10:24:41;;;;;;;25.10;16.90;;;0.10;99.90;;;;;;4983654;28;20439;-92
2021/03/19 10:27:24;;;;;;;21.63;14.20;;;0.50;99.90;;;;;;5003285;28;20464;-94
2021/03/19 10:29:56;;;;;;;22.95;16.38;;;1.10;99.90;;;;;;4993515;28;20435;-92
2021/03/19 10:32:44;;;;;;;19.85;14.88;;;1.60;99.90;;;;;;4993288;28;20426;-93
2021/03/19 10:35:30;;;;;;;21.00;15.00;;;2.40;99.90;;;;;;5019562;28;20482;-91
2021/03/19 10:39:07;;;;;;;27.95;16.83;;;2.90;99.80;;;;;;5016563;28;20479;-96
2021/03/19 10:41:53;;;;;;;21.30;15.13;;;1.90;99.90;;;;;;4992115;28;20454;-93
2021/03/19 10:45:13;;;;;;;18.70;13.30;;;0.80;99.90;;;;;;5008442;28;20466;-93
2021/03/19 10:48:45;;;;;;;24.07;16.43;;;0.40;99.90;;;;;;4931424;29;20417;-92
2021/03/19 10:52:10;;;;;;;28.87;19.57;;;-0.10;99.90;;;;;;4925254;29;20421;-92
2021/03/19 10:55:23;;;;;;;34.42;22.10;;;-0.40;99.90;;;;;;4913615;29;20445;-92
2021/03/19 10:58:58;;;;;;;25.80;17.50;;;-0.60;99.90;;;;;;4913697;29;20413;-91
2021/03/19 11:02:41;;;;;;;25.60;17.73;;;-0.50;99.90;;;;;;4833697;29;20441;-92
2021/03/19 11:05:55;;;;;;;17.40;12.27;;;0.00;99.90;;;;;;4835913;29;20441;-93
2021/03/19 11:08:52;;;;;;;15.30;10.13;;;0.10;99.90;;;;;;4796997;29;20833;-94
2021/03/19 11:12:04;;;;;;;15.02;10.32;;;0.30;99.90;;;;;;4795015;30;20452;-93
2021/03/19 11:15:34;;;;;;;11.15;8.18;;;0.50;99.90;;;;;;4796809;30;20483;-92
2021/03/19 11:18:35;;;;;;;11.80;8.00;;;0.70;99.90;;;;;;4797099;30;20459;-95
2021/03/19 11:21:49;;;;;;;11.43;8.83;;;0.80;99.90;;;;;;4798784;29;20484;-92
2021/03/19 11:24:59;;;;;;;11.27;8.53;;;0.70;99.90;;;;;;4828485;29;20535;-93
2021/03/19 11:28:43;;;;;;;10.43;7.30;;;1.30;99.90;;;;;;4842579;29;20502;-94
2021/03/19 11:42:55;;;;;;;5.57;4.60;;;6.00;77.60;;;;;;5518111;23;20577;-96
2021/03/19 11:45:38;;;;;;;6.90;5.67;;;6.80;70.70;;;;;;5034162;28;20457;-95
2021/03/19 14:42:17;;;;;;;6.90;5.20;;;2.80;97.90;;;;;;5869260;22;20661;31
2021/03/19 14:49:34;;;;;;;6.70;5.05;;;3.10;95.30;;;;;;4946319;28;20459;-91
2021/03/19 14:56:57;;;;;;;9.13;6.90;;;2.80;96.50;;;;;;4854943;29;20440;-91
2021/03/19 15:00:25;;;;;;;10.13;7.07;;;2.80;98.70;;;;;;4855353;29;20596;-91
2021/03/19 15:03:47;;;;;;;8.63;6.25;;;2.90;98.90;;;;;;4854539;29;20464;-91
2021/03/19 15:06:47;;;;;;;8.40;5.57;;;3.20;97.40;;;;;;4822269;29;20452;-91
2021/03/19 15:10:06;;;;;;;6.70;4.88;;;3.50;95.80;;;;;;4854556;29;20415;-91
2021/03/19 15:16:05;;;;;;;7.27;5.50;;;5.10;90.00;;;;;;5440568;23;20440;-91
2021/03/19 15:18:55;;;;;;;6.25;4.90;;;5.40;85.90;;;;;;5011106;28;20421;-92
2021/03/19 15:21:50;;;;;;;6.05;4.90;;;5.50;86.60;;;;;;5010294;28;20492;-91
2021/03/19 15:25:00;;;;;;;7.38;5.47;;;5.60;85.40;;;;;;4992093;28;20456;-92
2021/03/19 15:28:18;;;;;;;10.13;5.97;;;5.80;85.10;;;;;;5004340;28;20420;-91
2021/03/19 15:31:17;;;;;;;13.20;7.32;;;5.80;79.90;;;;;;5007115;28;20430;-91
2021/03/19 15:34:04;;;;;;;14.13;7.40;;;5.80;82.30;;;;;;5006704;28;20430;-91
2021/03/19 15:38:05;;;;;;;13.98;8.30;;;5.80;79.50;;;;;;5054733;23;20436;-91
2021/03/19 15:40:58;;;;;;;15.20;7.60;;;5.30;80.90;;;;;;5027767;28;20413;-90
2021/03/19 15:44:06;;;;;;;9.63;6.05;;;4.70;85.30;;;;;;5029343;28;20432;-91
2021/03/19 15:47:05;;;;;;;12.63;6.82;;;4.10;87.90;;;;;;5011236;28;20817;-91
2021/03/19 15:50:03;;;;;;;9.88;7.00;;;3.60;92.60;;;;;;5027994;28;20422;-91
2021/03/19 15:53:08;;;;;;;10.63;7.05;;;3.30;93.50;;;;;;4999036;28;20439;-90
2021/03/19 15:55:54;;;;;;;11.85;7.88;;;3.00;95.10;;;;;;5029234;28;20413;-91
2021/03/19 15:58:43;;;;;;;40.03;17.25;;;2.70;96.10;;;;;;5027331;28;20424;-91
2021/03/19 16:02:07;;;;;;;19.10;10.40;;;2.60;97.20;;;;;;5026503;28;20428;-91
2021/03/19 16:05:12;;;;;;;8.13;5.78;;;2.50;97.30;;;;;;4968871;29;20433;-91
2021/03/19 16:08:24;;;;;;;7.15;5.53;;;2.00;95.40;;;;;;4966060;28;20433;-91
2021/03/19 16:11:46;;;;;;;7.25;5.75;;;1.20;97.50;;;;;;4952117;28;20505;-91
2021/03/19 16:15:23;;;;;;;6.85;5.47;;;0.50;99.90;;;;;;4969423;28;20456;-91
2021/03/19 16:18:57;;;;;;;6.50;5.25;;;0.20;99.90;;;;;;4972284;28;20412;-91
2021/03/19 16:22:00;;;;;;;7.57;5.65;;;0.00;99.90;;;;;;4832270;29;20457;-93
2021/03/19 16:24:44;;;;;;;7.25;5.72;;;0.00;99.90;;;;;;4788081;29;20488;-94
2021/03/19 16:27:42;;;;;;;8.45;5.85;;;-0.20;99.90;;;;;;4786323;30;20450;-96
2021/03/19 16:30:53;;;;;;;7.68;5.75;;;-0.20;99.90;;;;;;4785111;30;20427;-96
2021/03/19 16:33:57;;;;;;;7.63;6.00;;;-0.20;99.90;;;;;;4782680;30;20431;-96
2021/03/19 16:36:38;;;;;;;7.20;5.32;;;-0.20;99.90;;;;;;4777673;30;20450;-96
2021/03/19 16:39:06;;;;;;;7.03;5.80;;;-0.40;99.90;;;;;;4778288;30;20442;-95
2021/03/19 16:41:40;;;;;;;9.05;5.68;;;-0.50;99.90;;;;;;4776571;30;21042;-95
2021/03/19 16:44:07;;;;;;;7.57;5.95;;;-0.50;99.90;;;;;;4775509;30;20462;-95
2021/03/19 16:46:34;;;;;;;9.50;6.40;;;-0.50;99.90;;;;;;4774862;30;20442;-96
2021/03/19 16:49:02;;;;;;;8.02;5.70;;;-0.60;99.90;;;;;;4775522;29;20476;-96
2021/03/19 16:51:33;;;;;;;6.70;5.13;;;-0.60;99.90;;;;;;4790304;29;20582;-96
2021/03/19 16:54:01;;;;;;;8.55;5.30;;;-0.80;99.90;;;;;;4794769;29;20526;-95
2021/03/19 16:56:28;;;;;;;8.40;5.90;;;-0.90;99.90;;;;;;4825837;29;20504;-95
2021/03/19 16:58:54;;;;;;;7.33;5.53;;;-1.00;99.90;;;;;;4920877;29;20429;-96
2021/03/19 17:01:26;;;;;;;7.68;5.68;;;-1.00;99.90;;;;;;4920509;29;20441;-96
2021/03/19 17:03:54;;;;;;;7.60;5.43;;;-1.10;99.90;;;;;;4920062;29;20527;-95
2021/03/19 17:06:23;;;;;;;10.43;5.82;;;-1.10;99.90;;;;;;4919189;29;20444;-95
2021/03/19 17:08:50;;;;;;;8.13;5.35;;;-1.10;99.90;;;;;;4969173;28;20424;-96
2021/03/19 17:11:16;;;;;;;8.65;5.03;;;-1.20;99.90;;;;;;5000991;28;20421;-96
2021/03/19 17:13:44;;;;;;;8.95;5.35;;;-1.10;99.90;;;;;;5001120;28;20994;-93
2021/03/19 17:16:11;;;;;;;7.88;4.93;;;-1.30;99.90;;;;;;5001317;28;20428;-95
2021/03/19 17:18:39;;;;;;;8.75;6.00;;;-1.40;99.90;;;;;;5003032;28;20935;-94
2021/03/19 17:21:06;;;;;;;8.40;5.65;;;-1.40;99.90;;;;;;5001065;28;20431;-94
2021/03/19 17:23:34;;;;;;;9.15;5.40;;;-1.40;99.90;;;;;;4999422;28;20947;-96
2021/03/19 17:26:01;;;;;;;8.02;5.50;;;-1.50;99.90;;;;;;4999361;28;20528;-95
2021/03/19 17:28:31;;;;;;;9.90;5.30;;;-1.60;99.90;;;;;;4998631;28;20422;-95
2021/03/19 17:31:01;;;;;;;8.07;5.50;;;-1.70;99.90;;;;;;5004999;28;20969;-95
2021/03/19 17:33:46;;;;;;;7.83;5.30;;;-1.80;99.90;;;;;;5007237;28;20436;-96
2021/03/19 17:36:13;;;;;;;7.65;5.53;;;-1.80;99.90;;;;;;4995170;28;20811;-95
2021/03/19 17:38:40;;;;;;;7.78;5.22;;;-1.90;99.90;;;;;;4995034;28;20833;-93
2021/03/19 17:41:08;;;;;;;6.32;4.70;;;-1.90;99.90;;;;;;4994729;28;20778;-94
2021/03/19 17:43:36;;;;;;;8.20;5.30;;;-1.90;99.90;;;;;;4995103;28;20526;-95
2021/03/19 17:46:07;;;;;;;8.50;5.50;;;-2.00;99.90;;;;;;4996563;28;20433;-95
2021/03/19 17:48:35;;;;;;;6.78;5.15;;;-2.10;99.90;;;;;;4999279;28;20439;-94
2021/03/19 17:51:06;;;;;;;7.32;5.00;;;-2.00;99.90;;;;;;4995354;28;20429;-96
2021/03/19 17:53:39;;;;;;;8.65;5.28;;;-2.10;99.90;;;;;;4994662;28;20428;-95
2021/03/19 17:56:27;;;;;;;7.20;5.53;;;-2.10;99.90;;;;;;4995399;28;20433;-95
2021/03/19 17:58:55;;;;;;;8.13;5.45;;;-2.10;99.90;;;;;;4996084;28;20429;-95
2021/03/19 18:01:32;;;;;;;8.60;5.07;;;-2.00;99.90;;;;;;5004363;28;20465;-96
2021/03/19 18:04:18;;;;;;;8.45;5.90;;;-2.00;99.90;;;;;;4958310;28;20446;-96
2021/03/19 18:06:47;;;;;;;8.32;6.13;;;-2.00;99.90;;;;;;4997639;28;20419;-96
2021/03/19 18:09:16;;;;;;;8.52;5.50;;;-2.10;99.90;;;;;;4996934;28;20465;-96
2021/03/19 18:11:45;;;;;;;7.80;5.68;;;-2.10;99.90;;;;;;4997421;28;20427;-96
2021/03/19 18:14:13;;;;;;;8.95;5.68;;;-2.20;99.90;;;;;;4997657;28;20430;-95
2021/03/19 18:16:43;;;;;;;9.35;6.78;;;-2.20;99.90;;;;;;4999457;28;20423;-96
2021/03/19 18:19:11;;;;;;;8.15;5.70;;;-2.10;99.90;;;;;;4999143;28;20509;-96
2021/03/19 18:21:45;;;;;;;8.73;6.43;;;-2.30;99.90;;;;;;4983216;28;20541;-96
2021/03/19 18:24:13;;;;;;;11.80;6.50;;;-2.40;99.90;;;;;;4999735;28;20473;-93
2021/03/19 18:26:42;;;;;;;10.18;6.40;;;-2.40;99.90;;;;;;4998902;28;20490;-96
2021/03/19 18:29:12;;;;;;;10.23;6.57;;;-2.50;99.90;;;;;;4985323;28;21000;-95
2021/03/19 18:31:40;;;;;;;11.88;6.57;;;-2.50;99.90;;;;;;4981800;28;20426;-95
2021/03/19 18:34:07;;;;;;;9.82;6.53;;;-2.40;99.90;;;;;;5019349;23;20422;-95